createdAt,value
2018-06-24T00:01:16.281Z,2.80
2018-06-24T00:03:51.761Z,3.53
2018-06-24T00:06:29.973Z,2.93
2018-06-24T00:09:10.369Z,3.10
2018-06-24T00:11:48.811Z,3.10
2018-06-24T00:14:26.173Z,2.97
2018-06-24T00:17:02.772Z,2.97
2018-06-24T00:19:39.142Z,3.07
2018-06-24T00:22:27.457Z,2.47
2018-06-24T00:25:04.881Z,3.40
2018-06-24T00:27:42.471Z,3.13
2018-06-24T00:30:20.988Z,3.43
2018-06-24T00:32:58.178Z,3.00
2018-06-24T00:35:35.564Z,2.80
2018-06-24T00:38:12.851Z,3.20
2018-06-24T00:40:50.320Z,3.23
2018-06-24T00:43:29.065Z,3.10
2018-06-24T00:46:06.460Z,3.20
2018-06-24T00:48:44.669Z,3.50
2018-06-24T00:51:23.079Z,3.40
2018-06-24T00:54:00.678Z,3.57
2018-06-24T00:56:37.841Z,3.10
2018-06-24T00:59:17.912Z,3.23
2018-06-24T01:01:55.921Z,3.03
2018-06-24T01:04:33.098Z,3.10
2018-06-24T01:07:10.435Z,3.00
2018-06-24T01:09:46.963Z,3.47
2018-06-24T01:12:26.405Z,3.17
2018-06-24T01:15:02.869Z,3.00
2018-06-24T01:17:41.385Z,3.13
2018-06-24T01:20:18.879Z,3.03
2018-06-24T01:22:57.044Z,3.37
2018-06-24T01:25:35.389Z,3.57
2018-06-24T01:28:13.820Z,3.33
2018-06-24T01:33:40.064Z,3.33
2018-06-24T01:36:17.249Z,3.70
2018-06-24T01:38:54.849Z,3.30
2018-06-24T01:41:33.263Z,3.70
2018-06-24T01:44:12.402Z,3.43
2018-06-24T01:46:45.176Z,3.37
2018-06-24T01:49:27.682Z,3.73
2018-06-24T01:52:18.785Z,3.60
2018-06-24T01:54:57.192Z,3.50
2018-06-24T01:57:34.805Z,3.37
2018-06-24T02:00:29.398Z,3.50
2018-06-24T02:03:07.492Z,4.03
2018-06-24T02:05:42.033Z,3.97
2018-06-24T02:08:20.312Z,3.93
2018-06-24T02:11:00.392Z,3.77
2018-06-24T02:13:38.295Z,3.67
2018-06-24T02:16:15.786Z,3.50
2018-06-24T02:18:57.380Z,3.67
2018-06-24T02:21:33.536Z,3.47
2018-06-24T02:24:14.511Z,3.17
2018-06-24T02:26:52.217Z,3.43
2018-06-24T02:29:30.010Z,3.50
2018-06-24T02:32:03.305Z,3.33
2018-06-24T02:34:40.694Z,3.50
2018-06-24T02:37:17.059Z,3.60
2018-06-24T02:39:55.580Z,3.50
2018-06-24T02:42:30.408Z,3.53
2018-06-24T02:45:07.257Z,3.63
2018-06-24T02:47:52.155Z,3.13
2018-06-24T02:50:33.543Z,3.17
2018-06-24T02:53:14.580Z,3.40
2018-06-24T02:55:52.997Z,3.47
2018-06-24T02:58:31.746Z,3.63
2018-06-24T03:01:09.983Z,3.37
2018-06-24T03:03:52.165Z,3.37
2018-06-24T03:06:28.759Z,3.17
2018-06-24T03:09:06.538Z,3.50
2018-06-24T03:11:39.824Z,3.67
2018-06-24T03:14:17.111Z,3.57
2018-06-24T03:16:54.485Z,3.53
2018-06-24T03:19:31.994Z,3.70
2018-06-24T03:22:17.278Z,3.77
2018-06-24T03:24:57.821Z,3.67
2018-06-24T03:27:35.741Z,3.70
2018-06-24T03:30:12.689Z,3.83
2018-06-24T03:32:51.124Z,3.50
2018-06-24T03:35:28.829Z,3.33
2018-06-24T03:38:06.118Z,3.53
2018-06-24T03:40:42.894Z,3.50
2018-06-24T03:43:33.400Z,3.90
2018-06-24T03:46:21.301Z,3.77
2018-06-24T03:48:59.133Z,3.60
2018-06-24T03:51:37.187Z,3.43
2018-06-24T03:54:15.342Z,3.70
2018-06-24T03:56:52.089Z,3.43
2018-06-24T03:59:28.566Z,3.80
2018-06-24T04:02:06.184Z,3.70
2018-06-24T04:04:41.480Z,3.57
2018-06-24T04:07:19.942Z,3.40
2018-06-24T04:09:57.533Z,4.00
2018-06-24T04:15:25.213Z,4.00
2018-06-24T04:18:03.733Z,3.90
2018-06-24T04:20:41.226Z,4.13
2018-06-24T04:23:19.529Z,3.70
2018-06-24T04:25:57.236Z,3.50
2018-06-24T04:28:39.646Z,4.20
2018-06-24T04:31:18.778Z,3.90
2018-06-24T04:33:56.577Z,3.90
2018-06-24T04:36:43.781Z,3.80
2018-06-24T04:39:22.148Z,3.77
2018-06-24T04:42:01.443Z,3.80
2018-06-24T04:44:42.416Z,3.60
2018-06-24T04:47:30.457Z,3.40
2018-06-24T04:50:08.257Z,4.20
2018-06-24T04:52:47.081Z,3.77
2018-06-24T04:55:35.914Z,3.90
2018-06-24T04:58:26.374Z,3.97
2018-06-24T05:01:10.997Z,3.87
2018-06-24T05:03:54.378Z,3.80
2018-06-24T05:06:33.221Z,3.70
2018-06-24T05:09:22.418Z,3.57
2018-06-24T05:12:00.935Z,3.90
2018-06-24T05:14:40.071Z,3.87
2018-06-24T05:17:29.031Z,3.83
2018-06-24T05:20:11.333Z,4.20
2018-06-24T05:22:54.766Z,4.20
2018-06-24T05:25:38.098Z,3.80
2018-06-24T05:31:03.913Z,3.60
2018-06-24T05:33:53.716Z,3.87
2018-06-24T05:36:31.821Z,3.23
2018-06-24T05:39:10.343Z,3.57
2018-06-24T05:41:49.787Z,3.70
2018-06-24T05:44:28.293Z,3.07
2018-06-24T05:47:06.577Z,3.20
2018-06-24T05:49:48.091Z,2.80
2018-06-24T05:55:15.875Z,3.37
2018-06-24T05:57:55.624Z,3.43
2018-06-24T06:00:35.751Z,3.50
2018-06-24T06:03:14.196Z,3.40
2018-06-24T06:05:48.696Z,3.00
2018-06-24T06:08:25.491Z,3.10
2018-06-24T06:11:02.680Z,3.13
2018-06-24T06:13:38.121Z,3.40
2018-06-24T06:16:24.379Z,3.43
2018-06-24T06:19:01.504Z,3.50
2018-06-24T06:21:43.026Z,3.63
2018-06-24T06:24:19.970Z,3.90
2018-06-24T06:27:09.652Z,5.17
2018-06-24T06:29:47.859Z,4.30
2018-06-24T06:32:26.160Z,4.17
2018-06-24T06:35:10.120Z,4.23
2018-06-24T06:37:50.006Z,4.23
2018-06-24T06:40:27.762Z,4.03
2018-06-24T06:43:05.050Z,4.83
2018-06-24T06:45:53.351Z,5.10
2018-06-24T06:48:42.822Z,4.60
2018-06-24T06:51:19.332Z,4.47
2018-06-24T06:53:58.795Z,4.43
2018-06-24T06:56:38.189Z,4.80
2018-06-24T06:59:17.244Z,4.40
2018-06-24T07:01:59.042Z,4.73
2018-06-24T07:04:36.633Z,5.43
2018-06-24T07:07:14.127Z,4.63
2018-06-24T07:10:01.390Z,4.83
2018-06-24T07:15:32.614Z,5.07
2018-06-24T07:18:10.925Z,5.20
2018-06-24T07:20:50.263Z,5.10
2018-06-24T07:23:28.265Z,5.70
2018-06-24T07:26:07.406Z,5.33
2018-06-24T07:28:45.709Z,5.63
2018-06-24T07:31:31.974Z,5.80
2018-06-24T07:34:12.783Z,5.57
2018-06-24T07:36:54.985Z,5.70
2018-06-24T07:39:33.604Z,5.30
2018-06-24T07:42:13.658Z,5.67
2018-06-24T07:47:42.658Z,6.03
2018-06-24T07:50:24.460Z,5.23
2018-06-24T07:53:03.695Z,6.47
2018-06-24T07:55:42.971Z,5.53
2018-06-24T07:58:19.469Z,5.27
2018-06-24T08:01:00.384Z,5.50
2018-06-24T08:03:38.481Z,5.57
2018-06-24T08:06:17.794Z,6.37
2018-06-24T08:09:03.192Z,5.50
2018-06-24T08:11:41.915Z,5.40
2018-06-24T08:14:20.122Z,5.87
2018-06-24T08:16:55.265Z,5.33
2018-06-24T08:19:32.863Z,4.97
2018-06-24T08:22:10.654Z,4.83
2018-06-24T08:24:49.714Z,5.20
2018-06-24T08:27:29.217Z,5.17
2018-06-24T08:30:05.692Z,5.27
2018-06-24T08:32:43.389Z,4.57
2018-06-24T08:35:25.595Z,4.80
2018-06-24T08:38:14.156Z,4.33
2018-06-24T08:40:52.428Z,4.50
2018-06-24T08:43:31.997Z,4.47
2018-06-24T08:46:16.049Z,4.23
2018-06-24T08:48:55.077Z,4.20
2018-06-24T08:51:32.360Z,4.33
2018-06-24T08:54:09.854Z,4.33
2018-06-24T08:56:49.057Z,4.10
2018-06-24T08:59:34.668Z,4.30
2018-06-24T09:02:18.926Z,5.27
2018-06-24T09:04:57.648Z,4.67
2018-06-24T09:07:36.878Z,5.30
2018-06-24T09:10:18.877Z,4.90
2018-06-24T09:12:59.949Z,5.63
2018-06-24T09:15:38.474Z,5.50
2018-06-24T09:18:23.849Z,4.87
2018-06-24T09:21:02.362Z,5.07
2018-06-24T09:23:42.107Z,5.50
2018-06-24T09:26:31.977Z,5.47
2018-06-24T09:29:21.449Z,5.63
2018-06-24T09:31:59.062Z,5.53
2018-06-24T09:34:36.448Z,5.50
2018-06-24T09:37:14.355Z,5.83
2018-06-24T09:39:53.172Z,5.50
2018-06-24T09:42:32.000Z,5.43
2018-06-24T09:45:11.236Z,5.27
2018-06-24T09:47:51.289Z,5.20
2018-06-24T09:50:29.508Z,6.07
2018-06-24T09:53:15.607Z,5.07
2018-06-24T09:56:02.405Z,5.50
2018-06-24T09:58:43.365Z,4.87
2018-06-24T10:01:37.460Z,5.63
2018-06-24T10:04:14.441Z,5.90
2018-06-24T10:06:50.779Z,5.40
2018-06-24T10:09:29.529Z,5.53
2018-06-24T10:12:07.741Z,5.77
2018-06-24T10:14:46.129Z,5.57
2018-06-24T10:17:24.879Z,5.70
2018-06-24T10:20:07.184Z,5.13
2018-06-24T10:22:45.390Z,5.27
2018-06-24T10:25:28.917Z,5.73
2018-06-24T10:28:09.370Z,5.20
2018-06-24T10:30:48.517Z,5.10
2018-06-24T10:33:34.715Z,5.80
2018-06-24T10:36:13.953Z,5.90
2018-06-24T10:38:54.298Z,5.73
2018-06-24T10:41:32.827Z,5.37
2018-06-24T10:44:10.418Z,5.97
2018-06-24T10:49:49.273Z,5.87
2018-06-24T10:52:30.526Z,5.90
2018-06-24T10:55:10.988Z,5.63
2018-06-24T10:58:03.864Z,5.57
2018-06-24T11:00:43.400Z,5.70
2018-06-24T11:03:20.685Z,5.40
2018-06-24T11:06:01.851Z,6.23
2018-06-24T11:08:40.384Z,6.50
2018-06-24T11:11:22.583Z,5.87
2018-06-24T11:14:01.410Z,6.03
2018-06-24T11:16:40.033Z,6.00
2018-06-24T11:19:18.229Z,5.73
2018-06-24T11:21:56.256Z,6.07
2018-06-24T11:24:33.123Z,5.63
2018-06-24T11:27:11.738Z,5.37
2018-06-24T11:29:49.952Z,6.43
2018-06-24T11:32:43.473Z,5.90
2018-06-24T11:35:22.927Z,5.70
2018-06-24T11:37:57.687Z,5.13
2018-06-24T11:40:37.125Z,5.40
2018-06-24T11:43:27.622Z,6.27
2018-06-24T11:46:05.425Z,4.90
2018-06-24T11:48:43.118Z,5.33
2018-06-24T11:51:22.663Z,5.43
2018-06-24T11:54:01.001Z,5.40
2018-06-24T11:56:36.727Z,5.00
2018-06-24T11:59:20.158Z,5.17
2018-06-24T12:02:09.324Z,4.87
2018-06-24T12:04:46.919Z,5.40
2018-06-24T12:07:25.331Z,5.47
2018-06-24T12:10:15.624Z,5.10
2018-06-24T12:12:53.137Z,5.07
2018-06-24T12:15:32.586Z,4.93
2018-06-24T12:18:10.385Z,4.73
2018-06-24T12:20:48.544Z,4.80
2018-06-24T12:23:27.594Z,4.50
2018-06-24T12:26:03.377Z,4.57
2018-06-24T12:28:41.145Z,4.13
2018-06-24T12:31:19.357Z,4.67
2018-06-24T12:33:54.795Z,4.70
2018-06-24T12:36:40.937Z,4.47
2018-06-24T12:39:20.957Z,4.20
2018-06-24T12:41:59.767Z,4.23
2018-06-24T12:44:39.828Z,4.00
2018-06-24T12:47:21.060Z,3.97
2018-06-24T12:49:56.139Z,3.77
2018-06-24T12:52:35.065Z,3.90
2018-06-24T12:55:15.324Z,4.03
2018-06-24T12:57:53.918Z,4.10
2018-06-24T13:00:33.514Z,4.30
2018-06-24T13:03:10.879Z,4.03
2018-06-24T13:05:49.284Z,4.20
2018-06-24T13:08:24.835Z,4.07
2018-06-24T13:11:03.965Z,4.00
2018-06-24T13:13:39.720Z,4.17
2018-06-24T13:16:19.665Z,3.63
2018-06-24T13:18:59.485Z,4.13
2018-06-24T13:21:49.089Z,3.90
2018-06-24T13:24:26.994Z,3.90
2018-06-24T13:27:08.067Z,3.83
2018-06-24T13:29:55.498Z,4.00
2018-06-24T13:32:41.184Z,3.47
2018-06-24T13:35:18.775Z,3.53
2018-06-24T13:37:57.801Z,4.13
2018-06-24T13:40:36.226Z,4.00
2018-06-24T13:43:16.578Z,3.87
2018-06-24T13:46:02.362Z,4.13
2018-06-24T13:48:39.963Z,3.73
2018-06-24T13:51:16.327Z,3.70
2018-06-24T13:53:55.761Z,3.57
2018-06-24T13:56:35.015Z,3.70
2018-06-24T13:59:13.621Z,3.67
2018-06-24T14:02:00.942Z,3.23
2018-06-24T14:04:40.367Z,3.10
2018-06-24T14:07:20.437Z,3.70
2018-06-24T14:09:58.334Z,3.40
2018-06-24T14:12:36.732Z,3.17
2018-06-24T14:15:14.544Z,3.60
2018-06-24T14:17:54.291Z,3.60
2018-06-24T14:20:32.921Z,3.20
2018-06-24T14:23:13.919Z,2.93
2018-06-24T14:25:52.894Z,2.93
2018-06-24T14:28:33.589Z,3.40
2018-06-24T14:31:12.409Z,3.87
2018-06-24T14:33:50.616Z,3.90
2018-06-24T14:36:28.429Z,3.20
2018-06-24T14:39:10.319Z,4.83
2018-06-24T14:41:48.829Z,3.47
2018-06-24T14:44:27.348Z,3.37
2018-06-24T14:47:06.483Z,3.40
2018-06-24T14:49:44.923Z,3.33
2018-06-24T14:52:22.998Z,3.27
2018-06-24T14:55:01.815Z,3.47
2018-06-24T14:57:39.519Z,3.33
2018-06-24T15:00:25.008Z,3.70
2018-06-24T15:03:04.240Z,3.70
2018-06-24T15:05:42.613Z,3.37
2018-06-24T15:08:21.367Z,3.40
2018-06-24T15:11:03.680Z,3.30
2018-06-24T15:13:43.961Z,3.67
2018-06-24T15:16:21.628Z,3.33
2018-06-24T15:19:01.070Z,3.57
2018-06-24T15:21:39.304Z,3.63
2018-06-24T15:24:17.282Z,3.20
2018-06-24T15:26:56.358Z,3.30
2018-06-24T15:29:44.973Z,2.93
2018-06-24T15:32:31.145Z,3.23
2018-06-24T15:35:09.064Z,3.07
2018-06-24T15:37:51.364Z,3.33
2018-06-24T15:40:28.862Z,3.00
2018-06-24T15:43:04.107Z,3.23
2018-06-24T15:45:54.711Z,3.37
2018-06-24T15:48:34.842Z,3.23
2018-06-24T15:51:12.454Z,3.10
2018-06-24T15:53:53.429Z,3.10
2018-06-24T15:56:32.222Z,3.00
2018-06-24T15:59:07.661Z,3.30
2018-06-24T16:01:45.799Z,2.87
2018-06-24T16:04:21.543Z,3.00
2018-06-24T16:07:00.272Z,2.73
2018-06-24T16:09:49.540Z,3.20
2018-06-24T16:12:27.886Z,2.80
2018-06-24T16:15:06.345Z,3.00
2018-06-24T16:18:00.834Z,3.47
2018-06-24T16:20:39.389Z,3.03
2018-06-24T16:23:17.195Z,3.43
2018-06-24T16:25:54.469Z,3.80
2018-06-24T16:28:33.564Z,3.57
2018-06-24T16:31:17.539Z,3.17
2018-06-24T16:33:55.753Z,3.23
2018-06-24T16:36:44.072Z,3.10
2018-06-24T16:39:23.510Z,3.10
2018-06-24T16:42:02.256Z,3.03
2018-06-24T16:44:41.390Z,3.03
2018-06-24T16:47:16.427Z,3.30
2018-06-24T16:50:01.698Z,3.00
2018-06-24T16:52:49.032Z,3.70
2018-06-24T16:55:29.384Z,3.07
2018-06-24T16:58:11.141Z,3.20
2018-06-24T17:00:51.199Z,3.20
2018-06-24T17:03:31.075Z,3.00
2018-06-24T17:06:08.982Z,2.97
2018-06-24T17:09:01.829Z,3.30
2018-06-24T17:11:41.280Z,3.00
2018-06-24T17:14:19.445Z,3.10
2018-06-24T17:16:58.890Z,3.23
2018-06-24T17:19:40.345Z,2.90
2018-06-24T17:22:17.279Z,3.10
2018-06-24T17:24:54.233Z,2.73
2018-06-24T17:27:29.704Z,3.30
2018-06-24T17:30:04.227Z,3.20
2018-06-24T17:32:37.407Z,3.13
2018-06-24T17:35:12.250Z,3.13
2018-06-24T17:37:45.441Z,3.23
2018-06-24T17:40:21.808Z,3.17
2018-06-24T17:42:57.155Z,3.37
2018-06-24T17:45:32.325Z,3.10
2018-06-24T17:48:05.070Z,2.97
2018-06-24T17:50:39.186Z,3.33
2018-06-24T17:53:12.588Z,3.40
2018-06-24T17:55:45.956Z,3.57
2018-06-24T17:58:20.602Z,3.50
2018-06-24T18:00:55.027Z,3.50
2018-06-24T18:03:29.275Z,3.70
2018-06-24T18:06:01.713Z,4.00
2018-06-24T18:08:35.013Z,3.70
2018-06-24T18:11:09.485Z,4.03
2018-06-24T18:13:43.725Z,3.80
2018-06-24T18:16:17.348Z,4.20
2018-06-24T18:18:51.772Z,4.00
2018-06-24T18:21:25.984Z,4.33
2018-06-24T18:24:00.289Z,4.00
2018-06-24T18:26:34.931Z,3.80
2018-06-24T18:29:09.655Z,4.20
2018-06-24T18:31:43.564Z,4.30
2018-06-24T18:34:17.852Z,3.90
2018-06-24T18:36:52.408Z,3.90
2018-06-24T18:39:28.578Z,3.77
2018-06-24T18:42:02.972Z,4.07
2018-06-24T18:44:37.614Z,4.00
2018-06-24T18:47:12.825Z,4.10
2018-06-24T18:49:46.352Z,4.70
2018-06-24T18:52:21.541Z,4.07
2018-06-24T18:54:54.994Z,4.50
2018-06-24T18:57:29.392Z,4.07
2018-06-24T19:00:03.712Z,4.57
2018-06-24T19:02:38.401Z,4.10
2018-06-24T19:05:12.671Z,3.97
2018-06-24T19:07:48.116Z,4.17
2018-06-24T19:10:22.638Z,3.93
2018-06-24T19:12:57.711Z,4.33
2018-06-24T19:15:31.177Z,4.57
2018-06-24T19:18:04.774Z,4.40
2018-06-24T19:20:38.963Z,4.30
2018-06-24T19:23:12.368Z,4.40
2018-06-24T19:32:33.852Z,3.87
2018-06-24T19:35:07.452Z,4.30
2018-06-24T19:37:40.849Z,4.27
2018-06-24T19:40:14.013Z,4.30
2018-06-24T19:42:48.466Z,4.03
2018-06-24T19:45:22.677Z,3.97
2018-06-24T19:47:55.888Z,4.50
2018-06-24T19:50:28.959Z,4.40
2018-06-24T19:53:02.253Z,4.10
2018-06-24T19:55:35.652Z,4.43
2018-06-24T19:58:08.943Z,3.80
2018-06-24T20:00:42.442Z,4.40
2018-06-24T20:03:16.669Z,3.80
2018-06-24T20:05:53.337Z,4.37
2018-06-24T20:08:28.295Z,3.90
2018-06-24T20:11:02.761Z,4.07
2018-06-24T20:13:36.286Z,4.37
2018-06-24T20:16:10.810Z,4.20
2018-06-24T20:18:46.050Z,4.43
2018-06-24T20:21:20.577Z,4.13
2018-06-24T20:23:54.695Z,4.23
2018-06-24T20:26:28.493Z,4.20
2018-06-24T20:29:14.691Z,4.63
2018-06-24T20:31:48.978Z,4.50
2018-06-24T20:34:23.428Z,4.30
2018-06-24T20:36:57.950Z,4.60
2018-06-24T20:39:35.549Z,4.40
2018-06-24T20:42:14.576Z,4.50
2018-06-24T20:44:56.918Z,4.67
2018-06-24T20:47:35.421Z,4.30
2018-06-24T20:50:19.196Z,4.60
2018-06-24T20:52:54.378Z,4.70
2018-06-24T20:55:32.781Z,4.60
2018-06-24T20:58:15.138Z,4.97
2018-06-24T21:00:50.746Z,4.87
2018-06-24T21:03:29.052Z,5.13
2018-06-24T21:06:04.708Z,5.40
2018-06-24T21:08:42.507Z,4.80
2018-06-24T21:11:23.484Z,4.70
2018-06-24T21:14:05.691Z,4.83
2018-06-24T21:16:45.640Z,4.53
2018-06-24T21:19:22.922Z,4.40
2018-06-24T21:22:01.131Z,4.87
2018-06-24T21:24:40.825Z,4.80
2018-06-24T21:27:26.977Z,4.77
2018-06-24T21:30:07.257Z,4.87
2018-06-24T21:32:44.824Z,5.77
2018-06-24T21:35:22.071Z,4.90
2018-06-24T21:38:02.524Z,4.83
2018-06-24T21:40:43.896Z,5.10
2018-06-24T21:43:22.402Z,4.70
2018-06-24T21:46:01.914Z,4.73
2018-06-24T21:48:38.174Z,4.53
2018-06-24T21:51:14.851Z,4.90
2018-06-24T21:53:48.042Z,4.73
2018-06-24T21:56:22.880Z,5.07
2018-06-24T21:58:55.859Z,4.83
2018-06-24T22:01:30.385Z,5.37
2018-06-24T22:04:03.682Z,5.03
2018-06-24T22:06:39.021Z,4.30
2018-06-24T22:09:14.464Z,4.90
2018-06-24T22:11:48.884Z,5.63
2018-06-24T22:14:23.715Z,5.37
2018-06-24T22:16:56.907Z,4.93
2018-06-24T22:19:30.907Z,5.23
2018-06-24T22:22:05.850Z,5.13
2018-06-24T22:24:41.300Z,5.33
2018-06-24T22:27:14.797Z,5.30
2018-06-24T22:29:49.009Z,4.83
2018-06-24T22:32:22.611Z,5.77
2018-06-24T22:34:57.316Z,5.40
2018-06-24T22:37:32.783Z,5.30
2018-06-24T22:40:08.126Z,5.50
2018-06-24T22:42:42.649Z,5.00
2018-06-24T22:45:17.690Z,4.90
2018-06-24T22:47:51.277Z,5.40
2018-06-24T22:50:26.730Z,5.70
2018-06-24T22:53:00.951Z,5.30
2018-06-24T22:55:33.705Z,5.43
2018-06-24T22:58:08.871Z,5.20
2018-06-24T23:00:45.195Z,5.60
2018-06-24T23:03:20.988Z,6.00
2018-06-24T23:06:19.120Z,5.57
2018-06-24T23:09:08.554Z,5.93
2018-06-24T23:11:57.057Z,5.20
2018-06-24T23:14:49.225Z,5.40
2018-06-24T23:17:37.956Z,6.10
2018-06-24T23:20:23.355Z,5.87
2018-06-24T23:22:57.806Z,6.00
2018-06-24T23:25:31.380Z,5.73
2018-06-24T23:28:05.286Z,5.60
2018-06-24T23:30:54.061Z,6.40
2018-06-24T23:33:34.547Z,6.17
2018-06-24T23:36:15.962Z,5.83
2018-06-24T23:38:58.405Z,6.23
2018-06-24T23:41:43.871Z,5.83
2018-06-24T23:44:35.816Z,5.80
2018-06-24T23:47:10.825Z,6.13
2018-06-24T23:49:46.155Z,5.93
2018-06-24T23:52:30.635Z,5.83
2018-06-24T23:55:04.967Z,6.33
2018-06-24T23:57:38.870Z,5.83
